createdAt,value
2022-12-11T00:00:24.832Z,95310.25
2022-12-11T00:02:51.845Z,95315.84
2022-12-11T00:05:18.737Z,95314.75
2022-12-11T00:07:45.696Z,95272.09
2022-12-11T00:10:12.533Z,95277.44
2022-12-11T00:12:39.785Z,95266.91
2022-12-11T00:15:07.467Z,95252.09
2022-12-11T00:24:16.225Z,95263.31
2022-12-11T00:26:43.077Z,95280.72
2022-12-11T00:29:14.587Z,95280.19
2022-12-11T00:31:42.781Z,95242.91
2022-12-11T00:34:09.737Z,95250.84
2022-12-11T00:36:36.589Z,95264.97
2022-12-11T00:39:04.307Z,95271.56
2022-12-11T00:41:32.377Z,95294.16
2022-12-11T00:43:59.406Z,95275.66
2022-12-11T00:46:26.247Z,95261.97
2022-12-11T00:48:53.625Z,95250.69
2022-12-11T00:51:20.853Z,95226.56
2022-12-11T00:53:47.751Z,95243.03
2022-12-11T00:56:20.478Z,95218.88
2022-12-11T00:58:48.500Z,95219.56
2022-12-11T01:01:19.988Z,95221.03
2022-12-11T01:03:47.179Z,95200.06
2022-12-11T01:06:19.985Z,95194.41
2022-12-11T01:08:47.824Z,95164.25
2022-12-11T01:11:16.824Z,95163.84
2022-12-11T01:13:43.898Z,95112.19
2022-12-11T01:16:14.184Z,95154.78
2022-12-11T01:18:41.851Z,95128.78
2022-12-11T01:21:11.078Z,95159.06
2022-12-11T01:23:38.636Z,95138.88
2022-12-11T01:26:07.808Z,95130.50
2022-12-11T01:28:34.792Z,95143.78
2022-12-11T01:31:01.875Z,95150.22
2022-12-11T01:33:29.041Z,95168.91
2022-12-11T01:35:55.959Z,95155.41
2022-12-11T01:38:22.833Z,95120.84
2022-12-11T01:40:51.419Z,95128.81
2022-12-11T01:43:18.651Z,95128.06
2022-12-11T01:45:48.315Z,95113.38
2022-12-11T01:48:25.559Z,95103.94
2022-12-11T01:51:02.917Z,95118.69
2022-12-11T01:53:40.925Z,95117.16
2022-12-11T01:56:08.432Z,95112.63
2022-12-11T01:58:47.530Z,95098.63
2022-12-11T02:01:22.705Z,95095.13
2022-12-11T02:03:50.903Z,95077.84
2022-12-11T02:06:37.761Z,95072.75
2022-12-11T02:09:07.912Z,95079.72
2022-12-11T02:12:06.797Z,95067.28
2022-12-11T02:14:44.065Z,95032.41
2022-12-11T02:17:33.607Z,95060.59
2022-12-11T02:20:35.332Z,95047.53
2022-12-11T02:23:04.858Z,95033.97
2022-12-11T02:25:38.321Z,95023.81
2022-12-11T02:28:25.004Z,95027.53
2022-12-11T02:30:57.314Z,95042.75
2022-12-11T02:33:34.257Z,95016.44
2022-12-11T02:36:03.664Z,95027.53
2022-12-11T02:38:36.221Z,95021.09
2022-12-11T02:41:05.273Z,95021.28
2022-12-11T02:43:34.472Z,95006.00
2022-12-11T02:46:04.165Z,95016.88
2022-12-11T02:48:32.521Z,95025.69
2022-12-11T02:51:01.280Z,95005.00
2022-12-11T02:53:31.255Z,95023.44
2022-12-11T02:56:13.082Z,95020.09
2022-12-11T02:58:47.778Z,95021.34
2022-12-11T03:01:14.918Z,95011.72
2022-12-11T03:03:42.324Z,95002.94
2022-12-11T03:06:14.027Z,95006.50
2022-12-11T03:08:40.858Z,94995.91
2022-12-11T03:11:12.120Z,95010.00
2022-12-11T03:13:42.556Z,95001.88
2022-12-11T03:16:17.719Z,95011.50
2022-12-11T03:18:58.973Z,95002.00
2022-12-11T03:21:36.518Z,94990.91
2022-12-11T03:24:09.128Z,94971.34
2022-12-11T03:26:42.325Z,94996.72
2022-12-11T03:29:23.414Z,94973.44
2022-12-11T03:31:57.560Z,94980.28
2022-12-11T03:34:30.465Z,95001.34
2022-12-11T03:37:00.224Z,95011.50
2022-12-11T03:39:36.057Z,95002.00
2022-12-11T03:42:07.503Z,94996.44
2022-12-11T03:44:36.515Z,94983.38
2022-12-11T03:47:08.122Z,95007.22
2022-12-11T03:49:40.454Z,95009.66
2022-12-11T03:52:09.699Z,95011.66
2022-12-11T03:54:37.944Z,95010.16
2022-12-11T03:57:07.782Z,95021.22
2022-12-11T03:59:34.619Z,95026.72
2022-12-11T04:02:01.514Z,95015.31
2022-12-11T04:04:28.467Z,95005.44
2022-12-11T04:06:55.313Z,95032.31
2022-12-11T04:09:22.131Z,95015.78
2022-12-11T04:11:49.027Z,95015.38
2022-12-11T04:14:51.413Z,95012.09
2022-12-11T04:17:38.575Z,95020.44
2022-12-11T04:20:38.945Z,94994.00
2022-12-11T04:23:26.056Z,95006.72
2022-12-11T04:25:52.842Z,95001.22
2022-12-11T04:28:19.655Z,94997.78
2022-12-11T04:30:50.073Z,95004.63
2022-12-11T04:33:17.005Z,95016.09
2022-12-11T04:35:43.853Z,95025.00
2022-12-11T04:38:10.700Z,95030.66
2022-12-11T04:40:37.555Z,95023.88
2022-12-11T04:43:04.381Z,95033.44
2022-12-11T04:45:31.436Z,95043.44
2022-12-11T04:47:58.259Z,95042.38
2022-12-11T04:50:25.980Z,95013.09
2022-12-11T04:52:56.881Z,95039.41
2022-12-11T04:55:24.443Z,95046.56
2022-12-11T04:57:51.235Z,95058.06
2022-12-11T05:00:18.089Z,95043.59
2022-12-11T05:02:45.008Z,95012.28
2022-12-11T05:05:12.267Z,95024.03
2022-12-11T05:07:39.275Z,95033.53
2022-12-11T05:10:06.741Z,95031.22
2022-12-11T05:12:33.900Z,95037.09
2022-12-11T05:15:00.774Z,95053.06
2022-12-11T05:17:28.680Z,95053.75
2022-12-11T05:19:55.452Z,95046.19
2022-12-11T05:22:22.326Z,95077.22
2022-12-11T05:24:49.173Z,95083.91
2022-12-11T05:27:16.038Z,95074.81
2022-12-11T05:29:42.937Z,95076.91
2022-12-11T05:32:09.867Z,95067.97
2022-12-11T05:34:36.897Z,95067.97
2022-12-11T05:37:03.871Z,95074.03
2022-12-11T05:39:30.901Z,95082.88
2022-12-11T05:41:57.759Z,95086.69
2022-12-11T05:44:24.808Z,95089.06
2022-12-11T05:46:51.776Z,95088.53
2022-12-11T05:49:20.109Z,95089.31
2022-12-11T05:51:47.766Z,95096.75
2022-12-11T05:54:15.027Z,95097.88
2022-12-11T05:56:42.076Z,95096.25
2022-12-11T05:59:09.267Z,95108.63
2022-12-11T06:01:39.340Z,95113.84
2022-12-11T06:04:09.025Z,95115.47
2022-12-11T06:06:36.474Z,95111.50
2022-12-11T06:09:05.199Z,95112.41
2022-12-11T06:11:33.706Z,95113.00
2022-12-11T06:14:03.192Z,95108.22
2022-12-11T06:16:30.724Z,95104.50
2022-12-11T06:18:58.685Z,95116.56
2022-12-11T06:21:29.507Z,95129.72
2022-12-11T06:25:25.436Z,95127.69
2022-12-11T06:27:32.677Z,95137.47
2022-12-11T06:29:59.671Z,95149.84
2022-12-11T06:32:27.125Z,95154.63
2022-12-11T06:34:53.931Z,95161.34
2022-12-11T06:37:20.872Z,95174.00
2022-12-11T06:39:47.681Z,95181.72
2022-12-11T06:42:14.604Z,95178.44
2022-12-11T06:44:41.609Z,95179.47
2022-12-11T06:47:08.804Z,95175.72
2022-12-11T06:49:35.681Z,95182.81
2022-12-11T06:52:02.550Z,95157.66
2022-12-11T06:54:29.466Z,95178.03
2022-12-11T06:56:56.329Z,95188.56
2022-12-11T06:59:23.134Z,95175.22
2022-12-11T07:01:50.127Z,95156.63
2022-12-11T07:04:17.498Z,95163.44
2022-12-11T07:06:44.505Z,95171.78
2022-12-11T07:09:11.477Z,95169.25
2022-12-11T07:11:41.233Z,95177.63
2022-12-11T07:14:09.142Z,95165.00
2022-12-11T07:16:36.775Z,95153.59
2022-12-11T07:19:03.864Z,95153.81
2022-12-11T07:21:30.725Z,95151.38
2022-12-11T07:23:57.809Z,95153.97
2022-12-11T07:26:24.753Z,95145.41
2022-12-11T07:28:51.775Z,95160.97
2022-12-11T07:31:22.341Z,95168.22
2022-12-11T07:33:55.006Z,95159.19
2022-12-11T07:36:22.273Z,95174.09
2022-12-11T07:38:50.770Z,95180.38
2022-12-11T07:41:18.027Z,95179.88
2022-12-11T07:46:38.140Z,95189.78
2022-12-11T07:49:06.210Z,95196.63
2022-12-11T07:51:35.902Z,95190.47
2022-12-11T07:54:10.761Z,95198.16
2022-12-11T07:56:37.719Z,95160.38
2022-12-11T07:59:05.671Z,95189.50
2022-12-11T08:01:38.111Z,95191.53
2022-12-11T08:04:08.490Z,95189.53
2022-12-11T08:06:38.238Z,95188.41
2022-12-11T08:09:11.313Z,95196.84
2022-12-11T08:11:41.107Z,95197.31
2022-12-11T08:14:08.860Z,95197.75
2022-12-11T08:16:38.515Z,95193.25
2022-12-11T08:19:05.458Z,95194.28
2022-12-11T08:21:32.353Z,95143.38
2022-12-11T08:23:59.233Z,95193.56
2022-12-11T08:26:29.233Z,95186.00
2022-12-11T08:28:56.521Z,95176.38
2022-12-11T08:31:24.465Z,95197.53
2022-12-11T08:33:51.957Z,95187.66
2022-12-11T08:36:22.195Z,95185.47
2022-12-11T08:38:50.399Z,95171.31
2022-12-11T08:41:20.879Z,95163.63
2022-12-11T08:43:50.773Z,95183.50
2022-12-11T08:46:17.751Z,95142.22
2022-12-11T08:48:44.672Z,95173.22
2022-12-11T08:51:14.487Z,95167.59
2022-12-11T08:53:41.673Z,95145.31
2022-12-11T08:56:15.176Z,95134.47
2022-12-11T08:58:43.417Z,95140.97
2022-12-11T09:01:15.418Z,95143.19
2022-12-11T09:03:42.659Z,95147.13
2022-12-11T09:06:12.126Z,95158.28
2022-12-11T09:08:39.457Z,95121.75
2022-12-11T09:11:08.968Z,95155.31
2022-12-11T09:13:36.747Z,95166.66
2022-12-11T09:16:05.715Z,95170.09
2022-12-11T09:18:33.006Z,95180.91
2022-12-11T09:21:05.045Z,95162.56
2022-12-11T09:23:32.449Z,95156.50
2022-12-11T09:25:59.552Z,95142.44
2022-12-11T09:28:26.481Z,95152.63
2022-12-11T09:30:53.392Z,95149.66
2022-12-11T09:33:20.342Z,95152.13
2022-12-11T09:35:57.473Z,95139.31
2022-12-11T09:38:24.460Z,95140.28
2022-12-11T09:40:51.426Z,95152.91
2022-12-11T09:43:41.043Z,95146.19
2022-12-11T09:46:14.898Z,95156.66
2022-12-11T09:48:54.082Z,95128.75
2022-12-11T09:51:42.204Z,95099.44
2022-12-11T09:54:13.659Z,95134.84
2022-12-11T09:56:52.578Z,95121.84
2022-12-11T09:59:22.357Z,95127.03
2022-12-11T10:02:01.380Z,95121.22
2022-12-11T10:04:46.013Z,95079.69
2022-12-11T10:07:23.198Z,95113.97
2022-12-11T10:09:57.286Z,95094.09
2022-12-11T10:12:30.116Z,95090.16
2022-12-11T10:15:12.497Z,95098.81
2022-12-11T10:17:43.978Z,95104.34
2022-12-11T10:20:39.435Z,95100.09
2022-12-11T10:23:09.132Z,95093.72
2022-12-11T10:25:40.842Z,95101.59
2022-12-11T10:28:16.357Z,95105.91
2022-12-11T10:31:11.297Z,95099.78
2022-12-11T10:34:01.356Z,95099.50
2022-12-11T10:36:35.526Z,95095.88
2022-12-11T10:39:03.528Z,95103.28
2022-12-11T10:41:39.178Z,95089.19
2022-12-11T10:44:19.574Z,95102.97
2022-12-11T10:46:49.074Z,95083.47
2022-12-11T10:49:29.955Z,95095.75
2022-12-11T10:52:01.526Z,95086.09
2022-12-11T10:54:49.156Z,95105.59
2022-12-11T10:57:16.132Z,95092.94
2022-12-11T10:59:42.948Z,95098.38
2022-12-11T11:02:24.748Z,95089.84
2022-12-11T11:04:53.328Z,95077.25
2022-12-11T11:07:27.185Z,95078.91
2022-12-11T11:10:12.345Z,95083.00
2022-12-11T11:12:47.795Z,95066.59
2022-12-11T11:15:28.245Z,95061.84
2022-12-11T11:18:10.053Z,95056.41
2022-12-11T11:20:47.508Z,95058.75
2022-12-11T11:23:19.554Z,95050.53
2022-12-11T11:26:00.539Z,95055.78
2022-12-11T11:28:30.916Z,95057.09
2022-12-11T11:31:05.504Z,95057.94
2022-12-11T11:33:35.325Z,95034.31
2022-12-11T11:36:05.825Z,95031.97
2022-12-11T11:38:44.763Z,95041.66
2022-12-11T11:41:41.647Z,95038.16
2022-12-11T11:44:13.121Z,95044.91
2022-12-11T11:46:49.301Z,95045.88
2022-12-11T11:49:25.862Z,95056.38
2022-12-11T11:52:13.859Z,95054.72
2022-12-11T11:55:06.024Z,95051.00
2022-12-11T11:57:42.522Z,95028.22
2022-12-11T12:00:28.887Z,95051.66
2022-12-11T12:03:09.161Z,95057.44
2022-12-11T12:05:57.636Z,95056.44
2022-12-11T12:09:19.317Z,95071.50
2022-12-11T12:11:51.938Z,95061.00
2022-12-11T12:14:53.960Z,95064.13
2022-12-11T12:17:31.533Z,95062.31
2022-12-11T12:20:10.533Z,95058.38
2022-12-11T12:23:07.403Z,95027.22
2022-12-11T12:25:57.946Z,95037.69
2022-12-11T12:28:45.021Z,95050.44
2022-12-11T12:31:45.999Z,95040.28
2022-12-11T12:34:34.391Z,95030.41
2022-12-11T12:37:31.959Z,95039.22
2022-12-11T12:40:19.723Z,95031.38
2022-12-11T12:43:02.248Z,95035.91
2022-12-11T12:45:37.946Z,95007.69
2022-12-11T12:48:05.000Z,94985.00
2022-12-11T12:50:40.710Z,95019.16
2022-12-11T12:53:10.120Z,94970.63
2022-12-11T12:55:37.424Z,95012.78
2022-12-11T12:58:06.781Z,95026.13
2022-12-11T13:00:36.345Z,95037.91
2022-12-11T13:03:35.453Z,95022.84
2022-12-11T13:06:07.775Z,95025.28
2022-12-11T13:08:43.628Z,95030.09
2022-12-11T13:11:12.994Z,95034.63
2022-12-11T13:13:53.176Z,95024.16
2022-12-11T13:16:25.845Z,95019.28
2022-12-11T13:18:52.975Z,95020.41
2022-12-11T13:21:38.649Z,95015.34
2022-12-11T13:24:20.788Z,95023.84
2022-12-11T13:26:49.413Z,94979.66
2022-12-11T13:29:40.382Z,95021.09
2022-12-11T13:32:11.159Z,95015.19
2022-12-11T13:34:44.741Z,95010.44
2022-12-11T13:37:32.016Z,95021.22
2022-12-11T13:40:00.817Z,95020.09
2022-12-11T13:42:40.754Z,95018.44
2022-12-11T13:45:17.859Z,95012.56
2022-12-11T13:47:46.321Z,95016.16
2022-12-11T13:50:22.671Z,94997.03
2022-12-11T13:52:56.603Z,95020.75
2022-12-11T13:55:34.979Z,95021.06
2022-12-11T13:58:01.909Z,95021.09
2022-12-11T14:00:32.773Z,95012.41
2022-12-11T14:03:05.319Z,95027.97
2022-12-11T14:05:34.507Z,95020.94
2022-12-11T14:08:09.209Z,95021.09
2022-12-11T14:10:37.166Z,95038.25
2022-12-11T14:13:11.620Z,95037.78
2022-12-11T14:15:44.580Z,95025.03
2022-12-11T14:18:25.162Z,95041.22
2022-12-11T14:21:01.842Z,95018.16
2022-12-11T14:23:34.098Z,95033.50
2022-12-11T14:26:22.696Z,95031.41
2022-12-11T14:28:50.257Z,95036.63
2022-12-11T14:31:33.839Z,95018.41
2022-12-11T14:34:14.902Z,95029.91
2022-12-11T14:36:42.306Z,95021.53
2022-12-11T14:39:27.084Z,95027.28
2022-12-11T14:42:05.998Z,95030.88
2022-12-11T14:44:43.386Z,95032.50
2022-12-11T14:47:19.347Z,95044.13
2022-12-11T14:49:49.194Z,95036.91
2022-12-11T14:52:25.683Z,95044.13
2022-12-11T14:55:03.540Z,95053.72
2022-12-11T14:57:33.378Z,95041.94
2022-12-11T15:00:00.848Z,95054.00
2022-12-11T15:02:30.466Z,95066.91
2022-12-11T15:05:06.149Z,95068.34
2022-12-11T15:07:35.340Z,95048.78
2022-12-11T15:10:04.518Z,95055.22
2022-12-11T15:12:32.047Z,95067.63
2022-12-11T15:15:03.366Z,95061.72
2022-12-11T15:17:31.416Z,95070.28
2022-12-11T15:20:20.031Z,95067.75
2022-12-11T15:22:51.632Z,95078.72
2022-12-11T15:25:24.046Z,95087.59
2022-12-11T15:27:53.215Z,95079.91
2022-12-11T15:30:21.813Z,95093.13
2022-12-11T15:32:48.742Z,95093.69
2022-12-11T15:35:26.838Z,95090.84
2022-12-11T15:37:55.486Z,95063.44
2022-12-11T15:40:23.309Z,95085.66
2022-12-11T15:42:50.971Z,95093.25
2022-12-11T15:45:29.649Z,95086.88
2022-12-11T15:47:59.609Z,95109.50
2022-12-11T15:50:29.196Z,95107.41
2022-12-11T15:52:56.954Z,95112.31
2022-12-11T15:55:26.932Z,95114.25
2022-12-11T15:58:00.232Z,95107.72
2022-12-11T16:00:28.349Z,95107.56
2022-12-11T16:02:57.008Z,95065.34
2022-12-11T16:05:24.508Z,95105.94
2022-12-11T16:07:53.500Z,95105.94
2022-12-11T16:10:21.716Z,95115.31
2022-12-11T16:12:48.677Z,95113.97
2022-12-11T16:15:22.774Z,95108.44
2022-12-11T16:17:50.838Z,95122.19
2022-12-11T16:20:17.634Z,95120.59
2022-12-11T16:22:44.773Z,95107.63
2022-12-11T16:25:11.968Z,95106.75
2022-12-11T16:27:39.600Z,95096.06
2022-12-11T16:30:06.928Z,95089.97
2022-12-11T16:32:33.930Z,95094.53
2022-12-11T16:35:04.095Z,95100.63
2022-12-11T16:37:30.963Z,95101.97
2022-12-11T16:39:57.909Z,95091.25
2022-12-11T16:42:24.775Z,95062.97
2022-12-11T16:44:51.572Z,95088.16
2022-12-11T16:47:18.408Z,95089.13
2022-12-11T16:49:45.237Z,95103.16
2022-12-11T16:52:12.097Z,95105.44
2022-12-11T16:54:39.156Z,95101.50
2022-12-11T16:57:05.966Z,95118.47
2022-12-11T16:59:37.269Z,95111.50
2022-12-11T17:02:07.989Z,95128.16
2022-12-11T17:04:34.957Z,95126.41
2022-12-11T17:07:01.794Z,95127.69
2022-12-11T17:09:28.632Z,95117.34
2022-12-11T17:11:56.774Z,95124.34
2022-12-11T17:14:24.011Z,95126.28
2022-12-11T17:16:50.912Z,95105.75
2022-12-11T17:19:19.766Z,95119.50
2022-12-11T17:21:51.652Z,95113.88
2022-12-11T17:24:18.829Z,95106.13
2022-12-11T17:26:45.982Z,95099.13
2022-12-11T17:29:13.468Z,95105.53
2022-12-11T17:31:41.051Z,95087.13
2022-12-11T17:34:07.946Z,95110.91
2022-12-11T17:36:34.917Z,95076.78
2022-12-11T17:39:03.394Z,95113.50
2022-12-11T17:41:30.369Z,95120.66
2022-12-11T17:43:57.239Z,95119.94
2022-12-11T17:46:24.118Z,95112.16
2022-12-11T17:48:51.113Z,95109.72
2022-12-11T17:51:23.974Z,95130.63
2022-12-11T17:53:55.284Z,95130.00
2022-12-11T17:56:22.478Z,95130.63
2022-12-11T17:58:49.588Z,95130.00
2022-12-11T18:01:17.043Z,95109.66
2022-12-11T18:03:44.020Z,95138.31
2022-12-11T18:06:13.424Z,95149.75
2022-12-11T18:08:41.051Z,95160.09
2022-12-11T18:11:17.611Z,95152.59
2022-12-11T18:13:45.578Z,95161.19
2022-12-11T18:16:17.357Z,95165.31
2022-12-11T18:18:46.258Z,95164.63
2022-12-11T18:21:16.782Z,95157.91
2022-12-11T18:23:44.684Z,95153.63
2022-12-11T18:26:14.477Z,95152.00
2022-12-11T18:28:42.279Z,95166.94
2022-12-11T18:31:09.944Z,95166.97
2022-12-11T18:33:39.394Z,95177.41
2022-12-11T18:36:07.658Z,95191.72
2022-12-11T18:38:34.613Z,95201.09
2022-12-11T18:41:06.258Z,95187.41
2022-12-11T18:43:33.082Z,95166.50
2022-12-11T18:46:06.574Z,95191.94
2022-12-11T18:48:33.569Z,95197.28
2022-12-11T18:51:00.763Z,95208.00
2022-12-11T18:53:28.912Z,95216.03
2022-12-11T18:56:00.162Z,95226.84
2022-12-11T18:58:27.280Z,95228.50
2022-12-11T19:00:54.109Z,95245.47
2022-12-11T19:03:20.872Z,95242.94
2022-12-11T19:05:47.694Z,95247.06
2022-12-11T19:08:16.244Z,95256.56
2022-12-11T19:10:45.981Z,95257.75
2022-12-11T19:13:13.969Z,95275.72
2022-12-11T19:15:43.122Z,95282.16
2022-12-11T19:18:10.862Z,95279.16
2022-12-11T19:20:55.638Z,95290.63
2022-12-11T19:23:29.797Z,95303.06
2022-12-11T19:25:56.636Z,95320.94
2022-12-11T19:28:24.033Z,95315.19
2022-12-11T19:30:50.919Z,95330.09
2022-12-11T19:33:17.892Z,95347.13
2022-12-11T19:35:44.836Z,95364.47
2022-12-11T19:38:13.019Z,95354.97
2022-12-11T19:40:44.339Z,95351.94
2022-12-11T19:43:11.395Z,95338.19
2022-12-11T19:45:38.665Z,95348.19
2022-12-11T19:48:06.026Z,95358.28
2022-12-11T19:50:36.278Z,95353.53
2022-12-11T19:53:04.092Z,95356.84
2022-12-11T19:55:31.139Z,95365.16
2022-12-11T19:57:58.010Z,95358.44
2022-12-11T20:00:24.838Z,95331.09
2022-12-11T20:02:51.782Z,95346.53
2022-12-11T20:05:18.760Z,95353.88
2022-12-11T20:07:45.655Z,95356.44
2022-12-11T20:10:12.689Z,95352.88
2022-12-11T20:12:39.767Z,95334.56
2022-12-11T20:15:07.087Z,95339.69
2022-12-11T20:17:34.380Z,95357.72
2022-12-11T20:20:01.275Z,95364.25
2022-12-11T20:22:29.302Z,95356.97
2022-12-11T20:24:56.121Z,95369.63
2022-12-11T20:27:22.965Z,95358.84
2022-12-11T20:29:49.769Z,95365.63
2022-12-11T20:32:16.602Z,95344.41
2022-12-11T20:34:43.916Z,95364.00
2022-12-11T20:37:10.800Z,95367.06
2022-12-11T20:39:37.602Z,95383.13
2022-12-11T20:42:05.104Z,95380.84
2022-12-11T20:44:32.120Z,95381.56
2022-12-11T20:46:59.039Z,95396.81
2022-12-11T20:49:26.477Z,95391.59
2022-12-11T20:51:53.359Z,95374.63
2022-12-11T20:54:20.241Z,95385.13
2022-12-11T20:56:47.714Z,95380.19
2022-12-11T20:59:14.705Z,95373.91
2022-12-11T21:01:41.779Z,95376.88
2022-12-11T21:04:09.107Z,95385.31
2022-12-11T21:06:38.837Z,95377.81
2022-12-11T21:09:11.188Z,95362.13
2022-12-11T21:11:38.028Z,95365.19
2022-12-11T21:14:06.350Z,95385.06
2022-12-11T21:16:36.459Z,95382.44
2022-12-11T21:19:04.753Z,95375.38
2022-12-11T21:21:32.996Z,95379.69
2022-12-11T21:23:59.990Z,95391.19
2022-12-11T21:26:26.841Z,95398.97
2022-12-11T21:28:53.781Z,95404.25
2022-12-11T21:31:20.821Z,95413.47
2022-12-11T21:33:48.403Z,95427.97
2022-12-11T21:36:16.435Z,95416.84
2022-12-11T21:38:44.500Z,95433.69
2022-12-11T21:41:23.383Z,95445.94
2022-12-11T21:44:56.517Z,95454.34
2022-12-11T21:46:40.387Z,95440.75
2022-12-11T21:49:08.476Z,95451.69
2022-12-11T21:51:41.382Z,95448.94
2022-12-11T21:54:14.420Z,95453.00
2022-12-11T21:56:41.565Z,95454.56
2022-12-11T21:59:08.583Z,95452.03
2022-12-11T22:01:38.395Z,95451.25
2022-12-11T22:04:06.921Z,95439.38
2022-12-11T22:06:34.119Z,95436.47
2022-12-11T22:09:01.556Z,95441.50
2022-12-11T22:11:31.944Z,95455.56
2022-12-11T22:13:59.031Z,95459.06
2022-12-11T22:16:26.268Z,95456.38
2022-12-11T22:18:53.094Z,95457.16
2022-12-11T22:21:20.795Z,95461.22
2022-12-11T22:23:47.925Z,95460.00
2022-12-11T22:26:18.434Z,95469.56
2022-12-11T22:28:45.342Z,95460.53
2022-12-11T22:31:13.441Z,95466.75
2022-12-11T22:33:40.709Z,95476.19
2022-12-11T22:36:07.816Z,95484.22
2022-12-11T22:38:35.136Z,95478.06
2022-12-11T22:41:08.827Z,95477.84
2022-12-11T22:43:35.714Z,95489.78
2022-12-11T22:46:02.616Z,95488.06
2022-12-11T22:48:29.525Z,95496.47
2022-12-11T22:50:57.317Z,95479.66
2022-12-11T22:53:24.204Z,95477.63
2022-12-11T22:55:51.034Z,95480.81
2022-12-11T22:58:21.733Z,95479.50
2022-12-11T23:00:49.242Z,95476.06
2022-12-11T23:03:16.539Z,95469.16
2022-12-11T23:05:43.516Z,95467.63
2022-12-11T23:08:10.372Z,95462.16
2022-12-11T23:10:40.528Z,95462.25
2022-12-11T23:13:07.877Z,95476.41
2022-12-11T23:15:34.829Z,95465.84
2022-12-11T23:18:01.782Z,95478.78
2022-12-11T23:20:29.145Z,95482.53
2022-12-11T23:22:56.202Z,95485.28
2022-12-11T23:25:23.084Z,95486.13
2022-12-11T23:27:49.896Z,95493.41
2022-12-11T23:30:16.693Z,95501.13
2022-12-11T23:32:43.566Z,95491.41
2022-12-11T23:35:10.757Z,95482.84
2022-12-11T23:37:37.896Z,95508.16
2022-12-11T23:40:05.348Z,95499.56
2022-12-11T23:42:33.946Z,95506.00
2022-12-11T23:45:00.846Z,95459.09
2022-12-11T23:47:27.628Z,95507.94
2022-12-11T23:49:54.404Z,95527.94
2022-12-11T23:52:22.631Z,95551.78
2022-12-11T23:54:51.368Z,95561.63
2022-12-11T23:57:18.301Z,95546.13
2022-12-11T23:59:45.126Z,95569.22
